Flight Track Log - Related Links

Times and Time Zones

All times are in EDT time to prevent confusion due to time zone crossing. See the EJA929 flight status page for this flight to view local times or setup timezone preferences in your user account.

Time Position Orientation Groundspeed Altitude Reporting Facility
EDT Latitude Longitude Course Direction KTS km/h feet Rate Location/Type
Fri 08:15:28 40.8667 -74.0500 346° North 182 336 1,200  Level New York TRACON
Fri 08:16:28 40.9167 -74.0667 346° North 207 383 3,100 1,400 Climbing New York TRACON
Fri 08:17:28 40.9167 -74.1500 270° West 247 457 4,000 750 Climbing New York TRACON
Fri 08:18:28 40.9000 -74.2500 258° West 277 513 4,600 2,050 Climbing New York TRACON
Fri 08:20:09 40.9506 -74.3647 300° West 222 410 9,500 2,236 Climbing New York Center
Fri 08:21:09 41.0300 -74.3633 North 247 457 10,600 1,350 Climbing New York Center
Fri 08:22:09 41.1342 -74.3606 North 319 591 12,200 1,850 Climbing New York Center
Fri 08:23:09 41.2439 -74.3803 352° North 362 671 14,300 1,950 Climbing New York Center
Fri 08:24:09 41.3164 -74.4586 321° Northwest 367 679 16,100 1,850 Climbing New York Center
Fri 08:25:09 41.4028 -74.5603 319° Northwest 373 690 18,000 1,850 Climbing New York Center
Fri 08:26:09 41.4789 -74.6531 318° Northwest 373 690 19,800 1,401 Climbing New York Center
Fri 08:27:56 41.6147 -74.8142 318° Northwest 379 702 21,900 1,179 Climbing Boston Center
Fri 08:28:57 41.7042 -74.9150 320° Northwest 402 745 23,100 1,388 Climbing Boston Center
Fri 08:29:57 41.7978 -75.0217 320° Northwest 428 793 24,700 1,785 Climbing Boston Center
Fri 08:30:58 41.8914 -75.1231 321° Northwest 433 801 26,700 1,983 Climbing Boston Center
Fri 08:31:58 41.9867 -75.2306 320° Northwest 440 814 28,700 2,034 Climbing Boston Center
Fri 08:32:56 42.0842 -75.3300 323° Northwest 440 814 30,700 2,218 Climbing Boston Center
Fri 08:33:57 42.2047 -75.4253 330° Northwest 450 834 33,100 1,623 Climbing Boston Center
Fri 08:34:58 42.3025 -75.5142 326° Northwest 461 855 34,000 446 Climbing Boston Center
Fri 08:35:58 42.4231 -75.6044 331° Northwest 474 877 34,000  Level Boston Center
Fri 08:36:56 42.5350 -75.6975 329° Northwest 479 887 34,000  Level Boston Center
Fri 08:37:56 42.6492 -75.7911 329° Northwest 479 887 34,000  Level Boston Center
Fri 08:38:56 42.7589 -75.8819 329° Northwest 479 887 34,000  Level Boston Center
Fri 08:39:57 42.8728 -75.9733 330° Northwest 473 875 34,000  Level Boston Center
Fri 08:40:57 42.9828 -76.0592 330° Northwest 467 864 34,000  Level Boston Center
Fri 08:41:58 43.0861 -76.1478 328° Northwest 455 843 34,000  Level Boston Center
Fri 08:42:55 43.1897 -76.2336 329° Northwest 444 822 34,000  Level Boston Center
Fri 08:43:56 43.2992 -76.3289 328° Northwest 444 822 34,000  Level Boston Center
Fri 08:44:57 43.4042 -76.4244 327° Northwest 449 832 34,000  Level Boston Center
Fri 08:45:58 43.5114 -76.5172 328° Northwest 449 832 34,000  Level Boston Center
Fri 08:46:57 43.6164 -76.6133 326° Northwest 454 840 34,000  Level Boston Center
Fri 08:47:57 43.7250 -76.7244 324° Northwest 449 832 34,000  Level Boston Center
Fri 08:49:05 43.8000 -76.8667 306° West 450 834 34,000  Level Toronto Center
Fri 08:50:05 43.8667 -77.0000 305° West 450 834 34,000  Level Toronto Center
Fri 08:51:05 43.9333 -77.1333 305° West 450 834 34,000  Level Toronto Center
Fri 08:52:05 44.0000 -77.2667 305° West 450 834 34,000 -200 Level Toronto Center
Fri 08:53:05 44.1000 -77.4333 310° West 450 834 33,600 -600 Descending Toronto Center
Fri 08:54:05 44.1500 -77.5667 298° West 450 834 32,800 -800 Descending Toronto Center
Fri 08:55:05 44.2167 -77.7000 305° West 460 851 32,000 -700 Descending Toronto Center
Fri 08:56:05 44.3000 -77.8667 305° West 450 834 31,400 -1,750 Descending Toronto Center
Fri 08:57:05 44.3667 -78.0000 305° West 450 834 28,500 -3,200 Descending Toronto Center
Fri 08:58:05 44.4333 -78.1667 299° West 450 834 25,000 -3,350 Descending Toronto Center
Fri 08:59:05 44.4833 -78.2833 301° West 420 777 21,800 -3,400 Descending Toronto Center
Fri 09:00:05 44.5500 -78.4167 305° West 400 740 18,200 -3,350 Descending Toronto Center
Fri 09:01:05 44.6167 -78.5333 309° West 380 703 15,100 -2,733 Descending Toronto Center
Fri 09:03:05 44.7167 -78.7667 301° West 330 612 10,000 -1,700 Descending Toronto Center
Fri 09:04:05 44.7667 -78.8333 317° Northwest 280 518 10,000 -600 Level Toronto Center
Fri 09:05:05 44.8000 -78.9333 295° West 260 481 8,800 -1,350 Descending Toronto Center
Fri 09:06:05 44.8333 -79.0000 305° West 260 481 7,300 -1,550 Descending Toronto Center
Fri 09:07:05 44.8667 -79.0833 299° West 230 426 5,700 -1,400 Descending Toronto Center
Fri 09:08:05 44.9000 -79.1667 299° West 200 370 4,500 -1,200 Descending Toronto Center
Fri 09:10:00 44.9667 -79.3000 289° West  Level FlightAware Approximate
Fri 09:17:00 44.9747 -79.3033 289° West  Level Estimated
Fri 09:18:00 44.9747 -79.3033 289° West  Level Estimated
Fri 09:19:00 44.9747 -79.3033 289° West  Level Estimated
Fri 09:20:00 44.9747 -79.3033 289° West  Level Estimated

Login

Don't have an account? Register now (free) for customized features, flight alerts, and more!